createdAt,value
2022-11-13T00:00:00.441Z,4.9
2022-11-13T00:01:00.308Z,4.9
2022-11-13T00:02:00.406Z,4.9
2022-11-13T00:03:00.323Z,4.9
2022-11-13T00:04:00.423Z,4.9
2022-11-13T00:05:00.434Z,4.9
2022-11-13T00:06:00.649Z,4.9
2022-11-13T00:07:00.425Z,4.8
2022-11-13T00:08:00.697Z,4.8
2022-11-13T00:09:00.795Z,4.8
2022-11-13T00:10:00.299Z,4.8
2022-11-13T00:11:00.322Z,4.8
2022-11-13T00:12:00.574Z,4.9
2022-11-13T00:13:00.318Z,4.9
2022-11-13T00:14:00.430Z,4.9
2022-11-13T00:15:00.292Z,4.9
2022-11-13T00:16:00.316Z,4.9
2022-11-13T00:17:00.318Z,4.9
2022-11-13T00:18:00.314Z,4.9
2022-11-13T00:19:00.288Z,4.9
2022-11-13T00:20:00.478Z,4.8
2022-11-13T00:21:00.300Z,4.9
2022-11-13T00:22:00.277Z,4.9
2022-11-13T00:23:00.293Z,4.8
2022-11-13T00:24:00.296Z,4.8
2022-11-13T00:25:00.310Z,4.9
2022-11-13T00:26:00.466Z,4.8
2022-11-13T00:27:00.386Z,4.8
2022-11-13T00:28:00.292Z,4.8
2022-11-13T00:29:00.313Z,4.8
2022-11-13T00:30:00.303Z,4.8
2022-11-13T00:31:00.300Z,4.8
2022-11-13T00:32:00.421Z,4.8
2022-11-13T00:33:00.322Z,4.8
2022-11-13T00:34:40.964Z,4.8
2022-11-13T00:35:00.398Z,4.8
2022-11-13T00:36:00.327Z,4.8
2022-11-13T00:37:00.353Z,4.8
2022-11-13T00:38:00.465Z,4.8
2022-11-13T00:39:00.343Z,4.8
2022-11-13T00:40:00.295Z,4.8
2022-11-13T00:41:00.391Z,4.8
2022-11-13T00:42:00.478Z,4.8
2022-11-13T00:43:00.497Z,4.7
2022-11-13T00:44:00.588Z,4.8
2022-11-13T00:45:00.381Z,4.7
2022-11-13T00:46:00.283Z,4.7
2022-11-13T00:47:00.325Z,4.7
2022-11-13T00:48:00.300Z,4.7
2022-11-13T00:49:00.279Z,4.7
2022-11-13T00:50:00.587Z,4.7
2022-11-13T00:51:00.311Z,4.7
2022-11-13T00:52:00.342Z,4.7
2022-11-13T00:53:00.300Z,4.7
2022-11-13T00:54:00.320Z,4.7
2022-11-13T00:55:00.312Z,4.7
2022-11-13T00:56:00.488Z,4.7
2022-11-13T00:57:00.299Z,4.7
2022-11-13T00:58:00.472Z,4.7
2022-11-13T00:59:00.450Z,4.7
2022-11-13T01:00:00.309Z,4.7
2022-11-13T01:01:00.282Z,4.7
2022-11-13T01:02:00.472Z,4.7
2022-11-13T01:03:00.314Z,4.7
2022-11-13T01:04:00.289Z,4.7
2022-11-13T01:05:00.303Z,4.7
2022-11-13T01:06:00.284Z,4.7
2022-11-13T01:07:00.355Z,4.8
2022-11-13T01:08:00.458Z,4.7
2022-11-13T01:09:00.287Z,4.7
2022-11-13T01:10:00.364Z,4.7
2022-11-13T01:11:00.295Z,4.7
2022-11-13T01:12:00.290Z,4.7
2022-11-13T01:13:00.350Z,4.7
2022-11-13T01:14:00.612Z,4.6
2022-11-13T01:15:00.469Z,4.6
2022-11-13T01:16:00.295Z,4.6
2022-11-13T01:17:00.277Z,4.6
2022-11-13T01:18:00.321Z,4.6
2022-11-13T01:19:00.288Z,4.6
2022-11-13T01:20:00.433Z,4.6
2022-11-13T01:21:00.324Z,4.6
2022-11-13T01:22:00.373Z,4.6
2022-11-13T01:23:00.320Z,4.6
2022-11-13T01:24:00.302Z,4.5
2022-11-13T01:25:00.295Z,4.6
2022-11-13T01:26:00.497Z,4.6
2022-11-13T01:27:00.302Z,4.5
2022-11-13T01:28:00.309Z,4.5
2022-11-13T01:29:00.299Z,4.5
2022-11-13T01:30:00.397Z,4.5
2022-11-13T01:31:00.604Z,4.6
2022-11-13T01:32:00.438Z,4.6
2022-11-13T01:33:00.298Z,4.6
2022-11-13T01:34:00.311Z,4.6
2022-11-13T01:35:00.311Z,4.6
2022-11-13T01:36:00.299Z,4.6
2022-11-13T01:37:00.296Z,4.6
2022-11-13T01:38:00.434Z,4.7
2022-11-13T01:39:00.293Z,4.7
2022-11-13T01:40:00.287Z,4.7
2022-11-13T01:41:00.292Z,4.7
2022-11-13T01:42:00.281Z,4.7
2022-11-13T01:43:00.276Z,4.7
2022-11-13T01:44:00.433Z,4.8
2022-11-13T01:45:00.317Z,4.8
2022-11-13T01:46:00.314Z,4.8
2022-11-13T01:47:00.346Z,4.8
2022-11-13T01:48:00.277Z,4.8
2022-11-13T01:49:00.313Z,4.9
2022-11-13T01:50:00.442Z,4.9
2022-11-13T01:51:00.299Z,4.9
2022-11-13T01:52:00.325Z,4.9
2022-11-13T01:53:00.348Z,5.0
2022-11-13T01:54:00.335Z,5.0
2022-11-13T01:55:00.353Z,5.0
2022-11-13T01:56:00.497Z,5.0
2022-11-13T01:57:00.358Z,5.0
2022-11-13T01:58:00.280Z,5.0
2022-11-13T01:59:00.366Z,5.0
2022-11-13T02:00:00.333Z,5.0
2022-11-13T02:01:00.479Z,5.0
2022-11-13T02:02:00.461Z,5.0
2022-11-13T02:03:00.298Z,5.0
2022-11-13T02:04:00.336Z,5.0
2022-11-13T02:05:00.372Z,5.0
2022-11-13T02:06:00.296Z,5.0
2022-11-13T02:07:00.343Z,5.0
2022-11-13T02:08:00.504Z,5.0
2022-11-13T02:09:00.282Z,5.0
2022-11-13T02:10:00.282Z,5.0
2022-11-13T02:11:00.305Z,5.0
2022-11-13T02:12:00.289Z,5.0
2022-11-13T02:13:00.292Z,5.0
2022-11-13T02:14:00.444Z,5.0
2022-11-13T02:15:00.314Z,5.0
2022-11-13T02:16:00.348Z,5.0
2022-11-13T02:17:00.331Z,5.0
2022-11-13T02:18:00.320Z,5.0
2022-11-13T02:19:00.310Z,5.0
2022-11-13T02:20:00.515Z,5.0
2022-11-13T02:21:00.285Z,5.0
2022-11-13T02:22:00.293Z,5.0
2022-11-13T02:23:00.278Z,5.0
2022-11-13T02:24:00.292Z,5.0
2022-11-13T02:25:00.301Z,5.0
2022-11-13T02:26:00.426Z,5.0
2022-11-13T02:27:00.329Z,5.0
2022-11-13T02:28:00.335Z,5.0
2022-11-13T02:29:00.312Z,5.0
2022-11-13T02:30:00.376Z,5.0
2022-11-13T02:31:00.283Z,5.0
2022-11-13T02:32:00.415Z,5.0
2022-11-13T02:33:00.465Z,5.0
2022-11-13T02:34:00.305Z,5.0
2022-11-13T02:35:00.317Z,5.0
2022-11-13T02:36:00.330Z,5.0
2022-11-13T02:37:00.360Z,5.0
2022-11-13T02:38:00.585Z,5.0
2022-11-13T02:39:00.289Z,5.0
2022-11-13T02:40:00.319Z,5.0
2022-11-13T02:41:00.291Z,5.0
2022-11-13T02:42:00.290Z,5.0
2022-11-13T02:43:00.300Z,5.0
2022-11-13T02:44:00.462Z,5.0
2022-11-13T02:45:00.322Z,5.0
2022-11-13T02:46:00.303Z,5.0
2022-11-13T02:47:00.308Z,4.9
2022-11-13T02:48:00.440Z,4.9
2022-11-13T02:49:00.298Z,4.9
2022-11-13T02:50:00.431Z,4.9
2022-11-13T02:51:00.293Z,4.9
2022-11-13T02:52:00.292Z,4.8
2022-11-13T02:53:00.380Z,4.8
2022-11-13T02:54:00.293Z,4.8
2022-11-13T02:55:00.306Z,4.8
2022-11-13T02:56:00.457Z,4.8
2022-11-13T02:57:00.304Z,4.8
2022-11-13T02:58:00.300Z,4.8
2022-11-13T02:59:00.294Z,4.8
2022-11-13T03:00:00.342Z,4.8
2022-11-13T03:01:00.306Z,4.7
2022-11-13T03:02:00.488Z,4.7
2022-11-13T03:03:00.385Z,4.7
2022-11-13T03:04:00.295Z,4.7
2022-11-13T03:05:13.374Z,4.7
2022-11-13T03:06:00.281Z,4.7
2022-11-13T03:07:00.389Z,4.6
2022-11-13T03:08:00.483Z,4.6
2022-11-13T03:09:00.304Z,4.6
2022-11-13T03:10:00.313Z,4.6
2022-11-13T03:11:00.339Z,4.6
2022-11-13T03:12:00.392Z,4.6
2022-11-13T03:13:00.360Z,4.6
2022-11-13T03:14:00.465Z,4.6
2022-11-13T03:15:00.342Z,4.6
2022-11-13T03:16:00.295Z,4.6
2022-11-13T03:17:00.348Z,4.5
2022-11-13T03:18:00.677Z,4.5
2022-11-13T03:19:00.331Z,4.5
2022-11-13T03:20:00.464Z,4.5
2022-11-13T03:21:00.304Z,4.5
2022-11-13T03:22:00.291Z,4.5
2022-11-13T03:23:00.309Z,4.5
2022-11-13T03:24:00.333Z,4.4
2022-11-13T03:25:00.346Z,4.5
2022-11-13T03:26:00.509Z,4.5
2022-11-13T03:27:00.359Z,4.5
2022-11-13T03:28:00.325Z,4.5
2022-11-13T03:29:00.298Z,4.5
2022-11-13T03:30:00.333Z,4.5
2022-11-13T03:31:00.331Z,4.5
2022-11-13T03:32:00.504Z,4.5
2022-11-13T03:33:00.598Z,4.5
2022-11-13T03:34:00.348Z,4.5
2022-11-13T03:35:00.309Z,4.5
2022-11-13T03:36:00.375Z,4.6
2022-11-13T03:37:00.297Z,4.6
2022-11-13T03:38:00.598Z,4.6
2022-11-13T03:39:00.328Z,4.6
2022-11-13T03:40:00.371Z,4.6
2022-11-13T03:41:00.460Z,4.6
2022-11-13T03:42:00.291Z,4.6
2022-11-13T03:43:00.310Z,4.6
2022-11-13T03:44:00.448Z,4.6
2022-11-13T03:45:00.337Z,4.6
2022-11-13T03:46:00.295Z,4.7
2022-11-13T03:47:00.318Z,4.7
2022-11-13T03:48:00.504Z,4.7
2022-11-13T03:49:00.332Z,4.7
2022-11-13T03:50:00.451Z,4.8
2022-11-13T03:51:00.293Z,4.8
2022-11-13T03:52:00.313Z,4.8
2022-11-13T03:53:00.316Z,4.8
2022-11-13T03:54:00.388Z,4.8
2022-11-13T03:55:00.284Z,4.8
2022-11-13T03:56:00.438Z,4.9
2022-11-13T03:57:00.292Z,4.9
2022-11-13T03:58:00.298Z,4.9
2022-11-13T03:59:00.333Z,4.9
2022-11-13T04:00:00.307Z,5.0
2022-11-13T04:01:00.310Z,5.0
2022-11-13T04:02:00.485Z,5.0
2022-11-13T04:03:00.321Z,5.1
2022-11-13T04:04:00.439Z,5.1
2022-11-13T04:05:00.314Z,5.1
2022-11-13T04:06:00.282Z,5.2
2022-11-13T04:07:00.315Z,5.2
2022-11-13T04:08:00.537Z,5.2
2022-11-13T04:09:00.297Z,5.3
2022-11-13T04:10:00.280Z,5.3
2022-11-13T04:11:00.295Z,5.4
2022-11-13T04:12:00.342Z,5.4
2022-11-13T04:13:00.371Z,5.5
2022-11-13T04:14:00.454Z,5.6
2022-11-13T04:15:00.314Z,5.9
2022-11-13T04:16:00.345Z,6.4
2022-11-13T04:17:00.337Z,6.8
2022-11-13T04:18:00.295Z,7.2
2022-11-13T04:19:00.320Z,7.6
2022-11-13T04:20:00.446Z,7.9
2022-11-13T04:21:00.298Z,8.2
2022-11-13T04:22:00.292Z,8.4
2022-11-13T04:23:00.305Z,8.7
2022-11-13T04:24:00.287Z,8.9
2022-11-13T04:25:00.299Z,9.2
2022-11-13T04:26:00.412Z,9.4
2022-11-13T04:27:00.295Z,9.7
2022-11-13T04:28:00.401Z,9.9
2022-11-13T04:29:00.272Z,10.1
2022-11-13T04:30:00.298Z,10.4
2022-11-13T04:31:00.295Z,10.7
2022-11-13T04:32:00.475Z,10.9
2022-11-13T04:33:00.305Z,11.2
2022-11-13T04:34:00.473Z,11.4
2022-11-13T04:35:00.295Z,11.7
2022-11-13T04:36:00.288Z,12.0
2022-11-13T04:37:00.302Z,12.2
2022-11-13T04:38:00.434Z,12.5
2022-11-13T04:39:00.347Z,12.7
2022-11-13T04:40:00.324Z,12.9
2022-11-13T04:41:00.292Z,13.1
2022-11-13T04:42:00.314Z,13.4
2022-11-13T04:43:00.316Z,13.7
2022-11-13T04:44:00.438Z,14.1
2022-11-13T04:45:00.361Z,14.3
2022-11-13T04:46:00.378Z,13.8
2022-11-13T04:47:00.311Z,13.4
2022-11-13T04:48:00.306Z,13.5
2022-11-13T04:49:00.710Z,14.0
2022-11-13T04:50:00.511Z,14.5
2022-11-13T04:51:00.289Z,15.0
2022-11-13T04:52:00.292Z,15.3
2022-11-13T04:53:00.296Z,15.6
2022-11-13T04:54:00.287Z,16.0
2022-11-13T04:55:00.292Z,16.3
2022-11-13T04:56:00.433Z,16.7
2022-11-13T04:57:00.312Z,17.1
2022-11-13T04:58:00.327Z,17.4
2022-11-13T04:59:00.310Z,17.7
2022-11-13T05:00:00.306Z,18.0
2022-11-13T05:01:00.312Z,18.3
2022-11-13T05:02:00.496Z,18.6
2022-11-13T05:03:00.289Z,19.0
2022-11-13T05:04:00.480Z,19.3
2022-11-13T05:05:04.698Z,19.6
2022-11-13T05:06:00.288Z,19.9
2022-11-13T05:07:00.352Z,20.1
2022-11-13T05:08:00.567Z,20.3
2022-11-13T05:09:00.373Z,20.6
2022-11-13T05:10:00.349Z,20.7
2022-11-13T05:11:00.309Z,20.8
2022-11-13T05:12:00.278Z,21.0
2022-11-13T05:13:00.309Z,21.1
2022-11-13T05:14:03.446Z,21.2
2022-11-13T05:15:00.296Z,21.3
2022-11-13T05:16:00.311Z,21.5
2022-11-13T05:17:00.299Z,21.7
2022-11-13T05:18:00.275Z,21.9
2022-11-13T05:19:00.445Z,22.1
2022-11-13T05:20:00.448Z,22.2
2022-11-13T05:21:00.308Z,22.3
2022-11-13T05:22:00.288Z,22.5
2022-11-13T05:23:00.296Z,22.6
2022-11-13T05:24:00.294Z,22.7
2022-11-13T05:25:00.288Z,23.0
2022-11-13T05:26:00.399Z,23.2
2022-11-13T05:27:00.291Z,23.3
2022-11-13T05:28:00.299Z,23.4
2022-11-13T05:29:00.310Z,23.5
2022-11-13T05:30:00.292Z,23.6
2022-11-13T05:31:00.323Z,23.8
2022-11-13T05:32:00.437Z,24.0
2022-11-13T05:33:00.302Z,24.2
2022-11-13T05:34:05.568Z,24.4
2022-11-13T05:35:00.381Z,24.3
2022-11-13T05:36:00.315Z,24.2
2022-11-13T05:37:00.336Z,24.1
2022-11-13T05:38:00.521Z,24.0
2022-11-13T05:39:00.365Z,24.2
2022-11-13T05:40:00.338Z,24.4
2022-11-13T05:41:00.303Z,24.7
2022-11-13T05:42:00.333Z,25.0
2022-11-13T05:43:00.411Z,25.3
2022-11-13T05:44:00.447Z,25.5
2022-11-13T05:45:00.306Z,25.6
2022-11-13T05:46:00.335Z,25.6
2022-11-13T05:47:00.326Z,25.6
2022-11-13T05:48:00.280Z,25.6
2022-11-13T05:49:00.322Z,25.4
2022-11-13T05:50:00.691Z,25.5
2022-11-13T05:51:00.293Z,25.7
2022-11-13T05:52:00.305Z,25.9
2022-11-13T05:53:00.308Z,26.0
2022-11-13T05:54:00.328Z,25.8
2022-11-13T05:55:00.306Z,26.0
2022-11-13T05:56:00.427Z,26.0
2022-11-13T05:57:00.310Z,26.0
2022-11-13T05:58:00.302Z,26.3
2022-11-13T05:59:00.286Z,26.5
2022-11-13T06:00:00.302Z,26.4
2022-11-13T06:01:00.281Z,26.4
2022-11-13T06:02:00.493Z,26.5
2022-11-13T06:03:00.367Z,26.6
2022-11-13T06:04:00.327Z,26.6
2022-11-13T06:05:00.438Z,26.7
2022-11-13T06:06:00.404Z,26.9
2022-11-13T06:07:00.394Z,27.0
2022-11-13T06:08:00.451Z,27.0
2022-11-13T06:09:00.323Z,27.2
2022-11-13T06:10:00.303Z,27.2
2022-11-13T06:11:00.373Z,27.4
2022-11-13T06:12:00.312Z,27.7
2022-11-13T06:13:00.293Z,27.7
2022-11-13T06:14:00.450Z,27.5
2022-11-13T06:15:00.308Z,25.7
2022-11-13T06:16:00.328Z,23.1
2022-11-13T06:17:00.374Z,21.2
2022-11-13T06:18:00.391Z,19.9
2022-11-13T06:19:00.416Z,19.0
2022-11-13T06:20:00.513Z,18.0
2022-11-13T06:21:00.545Z,17.2
2022-11-13T06:22:00.604Z,16.6
2022-11-13T06:23:00.312Z,16.1
2022-11-13T06:24:00.300Z,15.6
2022-11-13T06:25:00.309Z,15.2
2022-11-13T06:26:00.499Z,14.9
2022-11-13T06:27:00.296Z,14.6
2022-11-13T06:28:00.290Z,14.2
2022-11-13T06:29:00.285Z,14.0
2022-11-13T06:30:00.321Z,13.8
2022-11-13T06:31:00.277Z,13.6
2022-11-13T06:32:00.447Z,13.5
2022-11-13T06:33:00.353Z,13.3
2022-11-13T06:34:00.298Z,13.1
2022-11-13T06:35:00.288Z,12.9
2022-11-13T06:36:00.313Z,12.8
2022-11-13T06:37:01.904Z,12.7
2022-11-13T06:38:00.445Z,12.7
2022-11-13T06:39:00.355Z,12.4
2022-11-13T06:40:00.286Z,12.3
2022-11-13T06:41:00.289Z,12.3
2022-11-13T06:42:00.333Z,12.3
2022-11-13T06:43:00.279Z,12.2
2022-11-13T06:44:03.128Z,12.1
2022-11-13T06:45:00.288Z,12.0
2022-11-13T06:46:00.287Z,11.9
2022-11-13T06:47:00.294Z,11.9
2022-11-13T06:48:00.314Z,12.0
2022-11-13T06:49:00.297Z,12.0
2022-11-13T06:50:00.561Z,11.9
2022-11-13T06:51:00.310Z,11.7
2022-11-13T06:52:00.370Z,11.6
2022-11-13T06:53:00.369Z,11.5
2022-11-13T06:54:00.356Z,11.5
2022-11-13T06:55:00.330Z,11.5
2022-11-13T06:56:00.510Z,11.4
2022-11-13T06:57:00.456Z,11.4
2022-11-13T06:58:00.383Z,11.3
2022-11-13T06:59:00.327Z,11.3
2022-11-13T07:00:00.341Z,11.4
2022-11-13T07:01:00.424Z,11.4
2022-11-13T07:02:00.597Z,11.4
2022-11-13T07:03:00.283Z,11.3
2022-11-13T07:04:00.392Z,11.3
2022-11-13T07:05:00.318Z,11.3
2022-11-13T07:06:00.412Z,11.3
2022-11-13T07:07:00.588Z,11.3
2022-11-13T07:08:00.524Z,11.2
2022-11-13T07:09:00.370Z,11.3
2022-11-13T07:10:00.322Z,11.3
2022-11-13T07:11:00.344Z,11.3
2022-11-13T07:12:00.375Z,11.3
2022-11-13T07:13:00.291Z,11.4
2022-11-13T07:14:00.453Z,11.5
2022-11-13T07:15:00.292Z,11.5
2022-11-13T07:16:05.856Z,11.6
2022-11-13T07:17:10.545Z,11.6
2022-11-13T07:18:00.312Z,11.7
2022-11-13T07:19:00.297Z,11.8
2022-11-13T07:20:00.567Z,11.9
2022-11-13T07:21:00.312Z,11.9
2022-11-13T07:22:00.480Z,11.9
2022-11-13T07:23:00.457Z,11.8
2022-11-13T07:24:00.417Z,11.8
2022-11-13T07:25:00.356Z,11.9
2022-11-13T07:26:00.601Z,12.0
2022-11-13T07:27:00.312Z,12.0
2022-11-13T07:28:00.491Z,12.0
2022-11-13T07:29:00.345Z,12.1
2022-11-13T07:30:03.684Z,12.1
2022-11-13T07:31:00.377Z,12.1
2022-11-13T07:32:00.495Z,12.1
2022-11-13T07:33:00.341Z,12.2
2022-11-13T07:34:00.309Z,12.3
2022-11-13T07:35:00.324Z,12.4
2022-11-13T07:36:00.385Z,12.5
2022-11-13T07:37:00.323Z,12.5
2022-11-13T07:38:00.509Z,12.4
2022-11-13T07:39:00.573Z,12.4
2022-11-13T07:40:00.316Z,12.5
2022-11-13T07:41:00.331Z,12.6
2022-11-13T07:42:00.325Z,12.5
2022-11-13T07:43:00.314Z,12.6
2022-11-13T07:44:00.450Z,12.6
2022-11-13T07:45:00.297Z,12.5
2022-11-13T07:46:00.301Z,12.4
2022-11-13T07:47:00.341Z,12.3
2022-11-13T07:48:00.395Z,12.3
2022-11-13T07:49:00.321Z,12.2
2022-11-13T07:50:06.883Z,12.3
2022-11-13T07:51:00.391Z,12.3
2022-11-13T07:52:00.349Z,12.3
2022-11-13T07:53:00.341Z,12.2
2022-11-13T07:54:00.466Z,12.3
2022-11-13T07:55:00.338Z,12.3
2022-11-13T07:56:00.503Z,12.3
2022-11-13T07:57:00.312Z,12.3
2022-11-13T07:58:00.301Z,12.3
2022-11-13T07:59:00.309Z,12.3
2022-11-13T08:00:00.295Z,12.4
2022-11-13T08:01:00.359Z,12.6
2022-11-13T08:02:00.684Z,13.2
2022-11-13T08:03:00.295Z,14.3
2022-11-13T08:04:00.336Z,15.8
2022-11-13T08:05:00.338Z,17.5
2022-11-13T08:06:00.375Z,19.3
2022-11-13T08:07:00.387Z,20.8
2022-11-13T08:08:00.485Z,22.4
2022-11-13T08:09:00.371Z,23.5
2022-11-13T08:10:00.305Z,24.4
2022-11-13T08:11:00.334Z,24.9
2022-11-13T08:12:00.401Z,25.5
2022-11-13T08:13:00.382Z,26.3
2022-11-13T08:14:00.531Z,27.2
2022-11-13T08:15:00.332Z,28.0
2022-11-13T08:16:00.299Z,28.8
2022-11-13T08:17:00.287Z,29.5
2022-11-13T08:18:00.305Z,29.9
2022-11-13T08:19:00.302Z,30.2
2022-11-13T08:20:00.460Z,30.6
2022-11-13T08:21:00.304Z,30.9
2022-11-13T08:22:00.330Z,31.0
2022-11-13T08:23:00.290Z,31.2
2022-11-13T08:24:00.444Z,31.5
2022-11-13T08:25:00.287Z,31.5
2022-11-13T08:26:00.385Z,31.4
2022-11-13T08:27:00.323Z,31.2
2022-11-13T08:28:00.293Z,31.3
2022-11-13T08:29:00.310Z,31.6
2022-11-13T08:30:00.307Z,31.4
2022-11-13T08:31:00.312Z,31.0
2022-11-13T08:32:00.437Z,30.7
2022-11-13T08:33:00.323Z,30.4
2022-11-13T08:34:00.314Z,30.5
2022-11-13T08:35:00.324Z,30.4
2022-11-13T08:36:00.354Z,30.7
2022-11-13T08:37:00.282Z,31.3
2022-11-13T08:38:00.417Z,31.4
2022-11-13T08:39:00.412Z,31.4
2022-11-13T08:40:00.486Z,31.3
2022-11-13T08:41:04.414Z,31.3
2022-11-13T08:42:00.366Z,31.4
2022-11-13T08:43:00.353Z,31.4
2022-11-13T08:44:00.424Z,31.1
2022-11-13T08:45:00.319Z,30.6
2022-11-13T08:46:00.397Z,30.4
2022-11-13T08:47:00.367Z,30.6
2022-11-13T08:48:00.338Z,30.8
2022-11-13T08:49:00.358Z,30.8
2022-11-13T08:50:00.561Z,30.9
2022-11-13T08:51:00.336Z,31.4
2022-11-13T08:52:00.300Z,31.3
2022-11-13T08:53:00.300Z,31.3
2022-11-13T08:54:00.320Z,31.4
2022-11-13T08:55:00.646Z,31.5
2022-11-13T08:56:00.494Z,31.8
2022-11-13T08:57:05.614Z,32.3
2022-11-13T08:58:00.531Z,32.6
2022-11-13T08:59:00.448Z,32.9
2022-11-13T09:00:00.403Z,33.1
2022-11-13T09:01:00.441Z,33.3
2022-11-13T09:02:00.426Z,33.0
2022-11-13T09:03:00.488Z,32.5
2022-11-13T09:04:00.370Z,32.5
2022-11-13T09:05:00.297Z,32.7
2022-11-13T09:06:00.322Z,32.4
2022-11-13T09:07:00.375Z,32.2
2022-11-13T09:08:00.748Z,32.5
2022-11-13T09:09:00.317Z,32.7
2022-11-13T09:10:00.491Z,32.9
2022-11-13T09:11:00.536Z,33.2
2022-11-13T09:12:00.288Z,33.3
2022-11-13T09:13:00.338Z,33.4
2022-11-13T09:14:00.475Z,33.5
2022-11-13T09:15:00.321Z,33.9
2022-11-13T09:16:00.279Z,34.0
2022-11-13T09:17:00.294Z,33.9
2022-11-13T09:18:00.290Z,33.4
2022-11-13T09:19:00.304Z,32.5
2022-11-13T09:20:03.990Z,31.6
2022-11-13T09:21:00.294Z,30.9
2022-11-13T09:22:00.351Z,30.6
2022-11-13T09:23:00.332Z,30.5
2022-11-13T09:24:00.386Z,30.9
2022-11-13T09:25:00.322Z,30.9
2022-11-13T09:26:00.457Z,31.4
2022-11-13T09:27:00.359Z,31.6
2022-11-13T09:28:00.311Z,31.4
2022-11-13T09:29:00.342Z,31.5
2022-11-13T09:30:00.326Z,31.2
2022-11-13T09:31:00.311Z,31.0
2022-11-13T09:32:00.744Z,31.0
2022-11-13T09:33:00.413Z,31.4
2022-11-13T09:34:00.320Z,31.8
2022-11-13T09:35:00.320Z,32.1
2022-11-13T09:36:00.497Z,31.5
2022-11-13T09:37:00.308Z,30.9
2022-11-13T09:38:00.568Z,31.1
2022-11-13T09:39:00.322Z,31.3
2022-11-13T09:40:00.305Z,31.4
2022-11-13T09:41:00.606Z,31.6
2022-11-13T09:42:00.469Z,31.8
2022-11-13T09:43:00.403Z,32.0
2022-11-13T09:44:00.497Z,32.2
2022-11-13T09:45:00.325Z,32.6
2022-11-13T09:46:00.317Z,32.7
2022-11-13T09:47:00.319Z,32.6
2022-11-13T09:48:00.297Z,31.4
2022-11-13T09:49:00.303Z,30.7
2022-11-13T09:50:00.454Z,30.5
2022-11-13T09:51:00.304Z,30.7
2022-11-13T09:52:05.219Z,30.5
2022-11-13T09:53:00.359Z,30.5
2022-11-13T09:54:00.445Z,30.4
2022-11-13T09:55:00.356Z,30.3
2022-11-13T09:56:00.635Z,30.3
2022-11-13T09:57:00.542Z,30.5
2022-11-13T09:58:00.800Z,30.6
2022-11-13T09:59:00.583Z,30.7
2022-11-13T10:00:00.474Z,31.0
2022-11-13T10:01:00.486Z,31.0
2022-11-13T10:02:00.748Z,31.2
2022-11-13T10:03:00.614Z,31.5
2022-11-13T10:04:03.392Z,31.4
2022-11-13T10:05:00.516Z,30.9
2022-11-13T10:06:00.299Z,30.8
2022-11-13T10:07:00.443Z,30.8
2022-11-13T10:08:00.655Z,30.9
2022-11-13T10:09:00.298Z,30.9
2022-11-13T10:10:00.351Z,30.8
2022-11-13T10:11:00.319Z,30.6
2022-11-13T10:12:00.303Z,30.4
2022-11-13T10:13:00.460Z,30.4
2022-11-13T10:14:00.445Z,30.4
2022-11-13T10:15:00.382Z,30.6
2022-11-13T10:16:00.340Z,30.9
2022-11-13T10:17:00.282Z,30.9
2022-11-13T10:18:00.374Z,30.9
2022-11-13T10:19:00.364Z,30.8
2022-11-13T10:20:00.585Z,30.4
2022-11-13T10:21:00.428Z,30.1
2022-11-13T10:22:19.715Z,30.1
2022-11-13T10:23:00.439Z,29.6
2022-11-13T10:24:00.467Z,29.3
2022-11-13T10:25:00.464Z,29.3
2022-11-13T10:26:00.936Z,29.3
2022-11-13T10:27:00.563Z,29.3
2022-11-13T10:28:00.637Z,29.7
2022-11-13T10:29:00.702Z,30.2
2022-11-13T10:30:00.548Z,30.4
2022-11-13T10:31:00.717Z,30.6
2022-11-13T10:32:00.635Z,30.7
2022-11-13T10:33:00.642Z,30.7
2022-11-13T10:34:00.564Z,30.3
2022-11-13T10:35:00.441Z,29.7
2022-11-13T10:36:00.712Z,29.5
2022-11-13T10:37:00.698Z,29.6
2022-11-13T10:38:06.418Z,29.5
2022-11-13T10:39:00.400Z,29.4
2022-11-13T10:40:00.370Z,29.7
2022-11-13T10:41:00.317Z,30.0
2022-11-13T10:42:00.360Z,29.5
2022-11-13T10:43:00.494Z,29.0
2022-11-13T10:44:00.548Z,29.1
2022-11-13T10:45:00.398Z,29.5
2022-11-13T10:46:00.451Z,29.7
2022-11-13T10:47:00.400Z,29.7
2022-11-13T10:48:04.918Z,29.5
2022-11-13T10:49:00.409Z,29.6
2022-11-13T10:50:00.500Z,29.7
2022-11-13T10:51:00.355Z,30.0
2022-11-13T10:52:00.394Z,30.4
2022-11-13T10:53:00.338Z,30.6
2022-11-13T10:54:00.445Z,30.7
2022-11-13T10:55:00.370Z,30.7
2022-11-13T10:56:00.455Z,30.7
2022-11-13T10:57:00.417Z,30.6
2022-11-13T10:58:00.423Z,30.8
2022-11-13T10:59:00.309Z,30.9
2022-11-13T11:00:00.354Z,30.6
2022-11-13T11:01:00.405Z,30.1
2022-11-13T11:02:00.502Z,29.7
2022-11-13T11:03:00.393Z,29.4
2022-11-13T11:04:00.328Z,29.1
2022-11-13T11:05:00.308Z,29.0
2022-11-13T11:06:00.384Z,29.1
2022-11-13T11:07:20.951Z,29.3
2022-11-13T11:08:00.551Z,29.4
2022-11-13T11:09:00.332Z,29.1
2022-11-13T11:10:00.318Z,28.9
2022-11-13T11:11:00.381Z,28.5
2022-11-13T11:12:00.303Z,28.5
2022-11-13T11:13:00.432Z,28.5
2022-11-13T11:14:00.456Z,28.3
2022-11-13T11:15:00.304Z,28.5
2022-11-13T11:16:00.339Z,28.3
2022-11-13T11:17:00.295Z,28.0
2022-11-13T11:18:00.291Z,27.8
2022-11-13T11:19:00.427Z,27.8
2022-11-13T11:20:00.495Z,27.9
2022-11-13T11:21:00.295Z,28.0
2022-11-13T11:22:00.419Z,28.0
2022-11-13T11:23:00.317Z,28.1
2022-11-13T11:24:00.394Z,28.1
2022-11-13T11:25:00.317Z,28.0
2022-11-13T11:26:00.543Z,27.9
2022-11-13T11:27:00.316Z,27.8
2022-11-13T11:28:00.441Z,27.4
2022-11-13T11:29:00.315Z,27.3
2022-11-13T11:30:00.278Z,27.2
2022-11-13T11:31:00.340Z,27.1
2022-11-13T11:32:00.652Z,26.2
2022-11-13T11:33:00.422Z,24.7
2022-11-13T11:34:00.308Z,23.1
2022-11-13T11:35:00.353Z,21.4
2022-11-13T11:36:00.436Z,20.3
2022-11-13T11:37:00.534Z,20.0
2022-11-13T11:38:00.632Z,20.8
2022-11-13T11:39:00.318Z,21.6
2022-11-13T11:40:00.313Z,21.6
2022-11-13T11:41:00.339Z,20.3
2022-11-13T11:42:00.372Z,18.9
2022-11-13T11:43:00.469Z,18.0
2022-11-13T11:44:00.540Z,17.4
2022-11-13T11:45:00.351Z,16.9
2022-11-13T11:46:00.358Z,16.4
2022-11-13T11:47:00.330Z,16.1
2022-11-13T11:48:00.365Z,15.8
2022-11-13T11:49:00.336Z,15.4
2022-11-13T11:50:00.614Z,15.2
2022-11-13T11:51:00.342Z,14.9
2022-11-13T11:52:00.376Z,14.8
2022-11-13T11:53:00.367Z,14.7
2022-11-13T11:54:00.356Z,14.5
2022-11-13T11:55:00.341Z,14.5
2022-11-13T11:56:00.512Z,14.4
2022-11-13T11:57:00.325Z,14.4
2022-11-13T11:58:00.353Z,14.4
2022-11-13T11:59:00.320Z,14.3
2022-11-13T12:00:00.647Z,14.2
2022-11-13T12:01:00.461Z,14.1
2022-11-13T12:02:00.610Z,14.0
2022-11-13T12:03:00.287Z,13.9
2022-11-13T12:04:00.843Z,13.9
2022-11-13T12:05:00.398Z,13.9
2022-11-13T12:06:00.327Z,14.0
2022-11-13T12:07:00.480Z,13.9
2022-11-13T12:08:00.960Z,13.7
2022-11-13T12:09:00.351Z,13.6
2022-11-13T12:10:00.368Z,13.6
2022-11-13T12:11:00.465Z,13.6
2022-11-13T12:12:00.325Z,13.7
2022-11-13T12:13:00.328Z,14.0
2022-11-13T12:14:00.480Z,14.2
2022-11-13T12:15:00.320Z,14.3
2022-11-13T12:16:00.440Z,14.8
2022-11-13T12:17:00.417Z,15.8
2022-11-13T12:18:00.301Z,16.7
2022-11-13T12:19:00.313Z,17.3
2022-11-13T12:20:00.565Z,17.6
2022-11-13T12:21:00.341Z,17.7
2022-11-13T12:22:00.307Z,17.8
2022-11-13T12:23:00.324Z,17.8
2022-11-13T12:24:00.310Z,17.5
2022-11-13T12:25:00.295Z,17.1
2022-11-13T12:26:00.437Z,17.4
2022-11-13T12:27:00.309Z,17.9
2022-11-13T12:28:00.329Z,17.8
2022-11-13T12:29:00.526Z,16.9
2022-11-13T12:30:00.436Z,15.8
2022-11-13T12:31:00.507Z,15.1
2022-11-13T12:32:00.522Z,14.6
2022-11-13T12:33:00.314Z,14.4
2022-11-13T12:34:01.637Z,14.8
2022-11-13T12:35:00.299Z,15.6
2022-11-13T12:36:00.345Z,16.2
2022-11-13T12:37:00.294Z,16.6
2022-11-13T12:38:00.429Z,17.0
2022-11-13T12:39:00.336Z,17.2
2022-11-13T12:40:00.333Z,17.3
2022-11-13T12:41:00.312Z,17.5
2022-11-13T12:42:00.290Z,17.7
2022-11-13T12:43:00.333Z,17.9
2022-11-13T12:44:00.453Z,18.0
2022-11-13T12:45:00.356Z,18.0
2022-11-13T12:46:00.482Z,18.0
2022-11-13T12:47:00.442Z,17.7
2022-11-13T12:48:00.704Z,17.4
2022-11-13T12:49:00.367Z,16.9
2022-11-13T12:50:00.517Z,16.4
2022-11-13T12:51:00.289Z,16.0
2022-11-13T12:52:00.300Z,15.7
2022-11-13T12:53:00.395Z,15.4
2022-11-13T12:54:00.424Z,15.2
2022-11-13T12:55:00.380Z,15.1
2022-11-13T12:56:00.656Z,15.0
2022-11-13T12:57:00.438Z,14.9
2022-11-13T12:58:00.476Z,14.7
2022-11-13T12:59:29.682Z,14.4
2022-11-13T13:00:00.390Z,14.2
2022-11-13T13:01:00.451Z,14.0
2022-11-13T13:02:00.538Z,13.8
2022-11-13T13:03:00.317Z,13.6
2022-11-13T13:04:00.381Z,13.4
2022-11-13T13:05:00.314Z,13.1
2022-11-13T13:06:00.414Z,12.8
2022-11-13T13:07:00.434Z,12.6
2022-11-13T13:08:04.730Z,12.5
2022-11-13T13:09:00.371Z,12.4
2022-11-13T13:10:00.291Z,12.2
2022-11-13T13:11:00.290Z,12.1
2022-11-13T13:12:00.302Z,11.9
2022-11-13T13:13:00.411Z,11.8
2022-11-13T13:14:00.699Z,11.8
2022-11-13T13:15:00.364Z,11.7
2022-11-13T13:16:00.310Z,11.6
2022-11-13T13:17:00.524Z,11.6
2022-11-13T13:18:00.423Z,11.5
2022-11-13T13:19:00.414Z,11.4
2022-11-13T13:20:00.680Z,11.3
2022-11-13T13:21:00.475Z,11.3
2022-11-13T13:22:00.360Z,11.2
2022-11-13T13:23:00.389Z,11.2
2022-11-13T13:24:00.430Z,11.1
2022-11-13T13:25:00.422Z,11.1
2022-11-13T13:26:00.708Z,11.0
2022-11-13T13:27:00.485Z,11.0